sensor_id;sensor_type;location;lat;lon;timestamp;temperature;humidity
240;DHT22;104;53.590;10.004;2022-08-07T00:00:16;16.70;78.40
240;DHT22;104;53.590;10.004;2022-08-07T00:02:44;16.60;79.00
240;DHT22;104;53.590;10.004;2022-08-07T00:05:15;16.60;79.10
240;DHT22;104;53.590;10.004;2022-08-07T00:07:43;16.60;79.00
240;DHT22;104;53.590;10.004;2022-08-07T00:10:10;16.50;79.40
240;DHT22;104;53.590;10.004;2022-08-07T00:12:44;16.50;79.50
240;DHT22;104;53.590;10.004;2022-08-07T00:15:11;16.40;79.70
240;DHT22;104;53.590;10.004;2022-08-07T00:17:42;16.40;79.70
240;DHT22;104;53.590;10.004;2022-08-07T00:20:09;16.40;80.00
240;DHT22;104;53.590;10.004;2022-08-07T00:22:39;16.30;80.20
240;DHT22;104;53.590;10.004;2022-08-07T00:25:07;16.20;80.20
240;DHT22;104;53.590;10.004;2022-08-07T00:27:35;16.10;80.80
240;DHT22;104;53.590;10.004;2022-08-07T00:30:03;16.10;80.80
240;DHT22;104;53.590;10.004;2022-08-07T00:32:30;16.10;81.10
240;DHT22;104;53.590;10.004;2022-08-07T00:35:00;16.10;80.90
240;DHT22;104;53.590;10.004;2022-08-07T00:37:28;16.00;81.00
240;DHT22;104;53.590;10.004;2022-08-07T00:39:57;16.00;81.30
240;DHT22;104;53.590;10.004;2022-08-07T00:42:25;15.90;81.50
240;DHT22;104;53.590;10.004;2022-08-07T00:44:55;15.80;81.80
240;DHT22;104;53.590;10.004;2022-08-07T00:47:24;15.80;82.40
240;DHT22;104;53.590;10.004;2022-08-07T00:49:53;15.70;82.70
240;DHT22;104;53.590;10.004;2022-08-07T00:52:20;15.70;83.00
240;DHT22;104;53.590;10.004;2022-08-07T00:54:48;15.60;83.00
240;DHT22;104;53.590;10.004;2022-08-07T00:57:18;15.60;83.40
240;DHT22;104;53.590;10.004;2022-08-07T00:59:45;15.50;83.60
240;DHT22;104;53.590;10.004;2022-08-07T01:02:12;15.50;83.90
240;DHT22;104;53.590;10.004;2022-08-07T01:04:39;15.50;84.20
240;DHT22;104;53.590;10.004;2022-08-07T01:07:06;15.50;84.10
240;DHT22;104;53.590;10.004;2022-08-07T01:09:34;15.50;84.30
240;DHT22;104;53.590;10.004;2022-08-07T01:12:01;15.40;84.20
240;DHT22;104;53.590;10.004;2022-08-07T01:14:30;15.40;84.50
240;DHT22;104;53.590;10.004;2022-08-07T01:16:57;15.40;84.80
240;DHT22;104;53.590;10.004;2022-08-07T01:19:26;15.30;84.40
240;DHT22;104;53.590;10.004;2022-08-07T01:21:57;15.20;85.00
240;DHT22;104;53.590;10.004;2022-08-07T01:24:24;15.10;85.30
240;DHT22;104;53.590;10.004;2022-08-07T01:26:53;15.10;85.40
240;DHT22;104;53.590;10.004;2022-08-07T01:29:22;15.00;85.50
240;DHT22;104;53.590;10.004;2022-08-07T01:31:50;15.00;85.60
240;DHT22;104;53.590;10.004;2022-08-07T01:34:18;15.00;85.40
240;DHT22;104;53.590;10.004;2022-08-07T01:36:47;15.10;85.20
240;DHT22;104;53.590;10.004;2022-08-07T01:39:16;15.10;85.20
240;DHT22;104;53.590;10.004;2022-08-07T01:41:44;15.10;85.40
240;DHT22;104;53.590;10.004;2022-08-07T01:44:11;15.10;85.10
240;DHT22;104;53.590;10.004;2022-08-07T01:46:40;15.00;85.30
240;DHT22;104;53.590;10.004;2022-08-07T01:49:09;14.90;85.40
240;DHT22;104;53.590;10.004;2022-08-07T01:51:39;14.80;85.90
240;DHT22;104;53.590;10.004;2022-08-07T01:54:09;14.70;86.30
240;DHT22;104;53.590;10.004;2022-08-07T01:56:42;14.70;86.30
240;DHT22;104;53.590;10.004;2022-08-07T01:59:16;14.70;86.40
240;DHT22;104;53.590;10.004;2022-08-07T02:01:47;14.70;86.80
240;DHT22;104;53.590;10.004;2022-08-07T02:04:16;14.70;87.10
240;DHT22;104;53.590;10.004;2022-08-07T02:06:44;14.70;87.00
240;DHT22;104;53.590;10.004;2022-08-07T02:09:16;14.60;87.00
240;DHT22;104;53.590;10.004;2022-08-07T02:11:48;14.60;87.10
240;DHT22;104;53.590;10.004;2022-08-07T02:14:17;14.70;86.80
240;DHT22;104;53.590;10.004;2022-08-07T02:16:46;14.60;86.90
240;DHT22;104;53.590;10.004;2022-08-07T02:19:15;14.50;87.10
240;DHT22;104;53.590;10.004;2022-08-07T02:21:44;14.40;87.60
240;DHT22;104;53.590;10.004;2022-08-07T02:24:11;14.30;87.90
240;DHT22;104;53.590;10.004;2022-08-07T02:26:40;14.30;87.60
240;DHT22;104;53.590;10.004;2022-08-07T02:29:09;14.30;87.80
240;DHT22;104;53.590;10.004;2022-08-07T02:31:37;14.30;87.40
240;DHT22;104;53.590;10.004;2022-08-07T02:34:06;14.30;87.40
240;DHT22;104;53.590;10.004;2022-08-07T02:36:33;14.30;87.50
240;DHT22;104;53.590;10.004;2022-08-07T02:39:03;14.30;87.10
240;DHT22;104;53.590;10.004;2022-08-07T02:41:31;14.20;86.90
240;DHT22;104;53.590;10.004;2022-08-07T02:43:59;14.20;87.10
240;DHT22;104;53.590;10.004;2022-08-07T02:46:29;14.20;87.00
240;DHT22;104;53.590;10.004;2022-08-07T02:48:57;14.10;87.50
240;DHT22;104;53.590;10.004;2022-08-07T02:51:26;14.00;87.70
240;DHT22;104;53.590;10.004;2022-08-07T02:53:56;14.10;87.40
240;DHT22;104;53.590;10.004;2022-08-07T02:56:25;14.00;87.40
240;DHT22;104;53.590;10.004;2022-08-07T02:58:55;14.00;87.30
240;DHT22;104;53.590;10.004;2022-08-07T03:01:25;14.00;87.20
240;DHT22;104;53.590;10.004;2022-08-07T03:03:56;13.90;87.40
240;DHT22;104;53.590;10.004;2022-08-07T03:06:25;13.90;87.50
240;DHT22;104;53.590;10.004;2022-08-07T03:08:53;14.00;87.20
240;DHT22;104;53.590;10.004;2022-08-07T03:11:21;14.00;87.10
240;DHT22;104;53.590;10.004;2022-08-07T03:13:49;14.00;87.00
240;DHT22;104;53.590;10.004;2022-08-07T03:16:17;13.90;87.10
240;DHT22;104;53.590;10.004;2022-08-07T03:18:44;13.90;87.20
240;DHT22;104;53.590;10.004;2022-08-07T03:21:12;13.90;87.00
240;DHT22;104;53.590;10.004;2022-08-07T03:23:40;13.90;86.90
240;DHT22;104;53.590;10.004;2022-08-07T03:26:09;13.80;86.80
240;DHT22;104;53.590;10.004;2022-08-07T03:28:38;13.80;87.10
240;DHT22;104;53.590;10.004;2022-08-07T03:31:07;13.80;86.80
240;DHT22;104;53.590;10.004;2022-08-07T03:33:44;13.80;87.00
240;DHT22;104;53.590;10.004;2022-08-07T03:36:14;13.80;87.00
240;DHT22;104;53.590;10.004;2022-08-07T03:38:43;13.70;87.10
240;DHT22;104;53.590;10.004;2022-08-07T03:41:12;13.70;87.40
240;DHT22;104;53.590;10.004;2022-08-07T03:43:39;13.70;87.20
240;DHT22;104;53.590;10.004;2022-08-07T03:46:07;13.60;87.00
240;DHT22;104;53.590;10.004;2022-08-07T03:48:34;13.60;86.90
240;DHT22;104;53.590;10.004;2022-08-07T03:51:03;13.70;86.80
240;DHT22;104;53.590;10.004;2022-08-07T03:53:31;13.60;86.50
240;DHT22;104;53.590;10.004;2022-08-07T03:56:00;13.70;86.30
240;DHT22;104;53.590;10.004;2022-08-07T03:58:28;13.70;86.40
240;DHT22;104;53.590;10.004;2022-08-07T04:00:56;13.70;86.00
240;DHT22;104;53.590;10.004;2022-08-07T04:03:23;13.70;85.40
240;DHT22;104;53.590;10.004;2022-08-07T04:05:50;13.80;85.40
240;DHT22;104;53.590;10.004;2022-08-07T04:08:18;13.80;85.30
240;DHT22;104;53.590;10.004;2022-08-07T04:10:47;13.80;85.10
240;DHT22;104;53.590;10.004;2022-08-07T04:13:14;13.80;84.80
240;DHT22;104;53.590;10.004;2022-08-07T04:15:42;13.80;84.90
240;DHT22;104;53.590;10.004;2022-08-07T04:18:11;13.80;84.80
240;DHT22;104;53.590;10.004;2022-08-07T04:20:39;13.70;84.90
240;DHT22;104;53.590;10.004;2022-08-07T04:23:06;13.80;84.60
240;DHT22;104;53.590;10.004;2022-08-07T04:25:34;13.80;84.30
240;DHT22;104;53.590;10.004;2022-08-07T04:28:04;13.90;84.00
240;DHT22;104;53.590;10.004;2022-08-07T04:30:32;14.00;83.40
240;DHT22;104;53.590;10.004;2022-08-07T04:32:59;14.10;82.90
240;DHT22;104;53.590;10.004;2022-08-07T04:35:27;14.10;82.30
240;DHT22;104;53.590;10.004;2022-08-07T04:37:54;14.20;83.10
240;DHT22;104;53.590;10.004;2022-08-07T04:40:21;14.20;82.90
240;DHT22;104;53.590;10.004;2022-08-07T04:42:48;14.30;82.10
240;DHT22;104;53.590;10.004;2022-08-07T04:45:17;14.30;82.00
240;DHT22;104;53.590;10.004;2022-08-07T04:47:52;14.30;82.20
240;DHT22;104;53.590;10.004;2022-08-07T04:50:28;14.30;81.80
240;DHT22;104;53.590;10.004;2022-08-07T04:53:04;14.30;81.60
240;DHT22;104;53.590;10.004;2022-08-07T04:55:40;14.30;81.00
240;DHT22;104;53.590;10.004;2022-08-07T04:58:16;14.40;81.10
240;DHT22;104;53.590;10.004;2022-08-07T05:00:50;14.50;80.50
240;DHT22;104;53.590;10.004;2022-08-07T05:03:24;14.60;79.80
240;DHT22;104;53.590;10.004;2022-08-07T05:06:01;14.70;79.20
240;DHT22;104;53.590;10.004;2022-08-07T05:08:39;14.70;79.10
240;DHT22;104;53.590;10.004;2022-08-07T05:11:11;14.80;79.20
240;DHT22;104;53.590;10.004;2022-08-07T05:13:43;14.80;79.00
240;DHT22;104;53.590;10.004;2022-08-07T05:16:14;15.00;78.10
240;DHT22;104;53.590;10.004;2022-08-07T05:18:47;15.00;77.80
240;DHT22;104;53.590;10.004;2022-08-07T05:21:16;15.10;77.20
240;DHT22;104;53.590;10.004;2022-08-07T05:23:47;15.10;77.50
240;DHT22;104;53.590;10.004;2022-08-07T05:26:17;15.10;77.70
240;DHT22;104;53.590;10.004;2022-08-07T05:28:45;15.20;77.20
240;DHT22;104;53.590;10.004;2022-08-07T05:31:16;15.20;76.90
240;DHT22;104;53.590;10.004;2022-08-07T05:33:44;15.20;77.30
240;DHT22;104;53.590;10.004;2022-08-07T05:36:12;15.40;76.20
240;DHT22;104;53.590;10.004;2022-08-07T05:38:40;15.40;75.60
240;DHT22;104;53.590;10.004;2022-08-07T05:41:09;15.40;75.60
240;DHT22;104;53.590;10.004;2022-08-07T05:43:37;15.60;75.80
240;DHT22;104;53.590;10.004;2022-08-07T05:46:05;15.60;75.70
240;DHT22;104;53.590;10.004;2022-08-07T05:48:34;15.90;75.50
240;DHT22;104;53.590;10.004;2022-08-07T05:51:03;16.70;72.60
240;DHT22;104;53.590;10.004;2022-08-07T05:53:31;17.50;70.40
240;DHT22;104;53.590;10.004;2022-08-07T05:55:59;18.00;67.80
240;DHT22;104;53.590;10.004;2022-08-07T05:58:27;18.30;66.90
240;DHT22;104;53.590;10.004;2022-08-07T06:00:56;18.50;66.10
240;DHT22;104;53.590;10.004;2022-08-07T06:03:24;19.10;64.60
240;DHT22;104;53.590;10.004;2022-08-07T06:05:54;19.40;63.40
240;DHT22;104;53.590;10.004;2022-08-07T06:08:22;19.40;62.90
240;DHT22;104;53.590;10.004;2022-08-07T06:10:50;19.30;63.30
240;DHT22;104;53.590;10.004;2022-08-07T06:13:17;19.20;63.60
240;DHT22;104;53.590;10.004;2022-08-07T06:15:44;19.20;63.70
240;DHT22;104;53.590;10.004;2022-08-07T06:18:14;19.30;63.70
240;DHT22;104;53.590;10.004;2022-08-07T06:20:43;19.70;63.20
240;DHT22;104;53.590;10.004;2022-08-07T06:23:11;19.80;62.50
240;DHT22;104;53.590;10.004;2022-08-07T06:25:39;19.60;63.00
240;DHT22;104;53.590;10.004;2022-08-07T06:28:08;19.50;63.10
240;DHT22;104;53.590;10.004;2022-08-07T06:30:36;19.50;63.30
240;DHT22;104;53.590;10.004;2022-08-07T06:33:04;19.90;62.50
240;DHT22;104;53.590;10.004;2022-08-07T06:35:34;20.10;61.80
240;DHT22;104;53.590;10.004;2022-08-07T06:38:01;20.10;63.30
240;DHT22;104;53.590;10.004;2022-08-07T06:40:34;20.40;63.00
240;DHT22;104;53.590;10.004;2022-08-07T06:43:05;20.80;62.00
240;DHT22;104;53.590;10.004;2022-08-07T06:45:34;20.90;61.60
240;DHT22;104;53.590;10.004;2022-08-07T06:48:02;21.00;61.70
240;DHT22;104;53.590;10.004;2022-08-07T06:50:32;21.20;61.20
240;DHT22;104;53.590;10.004;2022-08-07T06:53:00;21.20;61.10
240;DHT22;104;53.590;10.004;2022-08-07T06:55:31;21.30;60.90
240;DHT22;104;53.590;10.004;2022-08-07T06:58:03;21.30;60.70
240;DHT22;104;53.590;10.004;2022-08-07T07:00:33;20.90;61.70
240;DHT22;104;53.590;10.004;2022-08-07T07:03:01;21.00;61.50
240;DHT22;104;53.590;10.004;2022-08-07T07:05:29;21.30;59.70
240;DHT22;104;53.590;10.004;2022-08-07T07:07:57;21.60;59.20
240;DHT22;104;53.590;10.004;2022-08-07T07:10:30;21.70;58.70
240;DHT22;104;53.590;10.004;2022-08-07T07:13:02;21.80;58.50
240;DHT22;104;53.590;10.004;2022-08-07T07:15:38;21.90;58.40
240;DHT22;104;53.590;10.004;2022-08-07T07:18:13;22.10;57.60
240;DHT22;104;53.590;10.004;2022-08-07T07:20:44;22.10;57.10
240;DHT22;104;53.590;10.004;2022-08-07T07:23:14;21.70;57.90
240;DHT22;104;53.590;10.004;2022-08-07T07:25:43;21.70;57.90
240;DHT22;104;53.590;10.004;2022-08-07T07:28:32;21.80;57.30
240;DHT22;104;53.590;10.004;2022-08-07T07:31:30;22.00;57.00
240;DHT22;104;53.590;10.004;2022-08-07T07:34:07;22.10;56.40
240;DHT22;104;53.590;10.004;2022-08-07T07:36:37;22.10;55.70
240;DHT22;104;53.590;10.004;2022-08-07T07:39:05;22.10;56.00
240;DHT22;104;53.590;10.004;2022-08-07T07:41:50;22.20;54.90
240;DHT22;104;53.590;10.004;2022-08-07T07:47:33;22.00;55.00
240;DHT22;104;53.590;10.004;2022-08-07T07:50:09;21.70;55.30
240;DHT22;104;53.590;10.004;2022-08-07T07:52:37;21.40;56.10
240;DHT22;104;53.590;10.004;2022-08-07T07:55:19;21.30;56.90
240;DHT22;104;53.590;10.004;2022-08-07T07:57:53;21.30;56.70
240;DHT22;104;53.590;10.004;2022-08-07T08:00:23;21.20;57.00
240;DHT22;104;53.590;10.004;2022-08-07T08:02:52;21.20;56.70
240;DHT22;104;53.590;10.004;2022-08-07T08:05:28;21.10;56.60
240;DHT22;104;53.590;10.004;2022-08-07T08:08:04;21.10;57.00
240;DHT22;104;53.590;10.004;2022-08-07T08:10:33;21.10;56.70
240;DHT22;104;53.590;10.004;2022-08-07T08:13:02;21.20;56.30
240;DHT22;104;53.590;10.004;2022-08-07T08:15:33;21.30;56.10
240;DHT22;104;53.590;10.004;2022-08-07T08:18:01;21.30;56.30
240;DHT22;104;53.590;10.004;2022-08-07T08:20:31;21.40;56.30
240;DHT22;104;53.590;10.004;2022-08-07T08:22:59;21.40;56.00
240;DHT22;104;53.590;10.004;2022-08-07T08:25:46;21.50;55.00
240;DHT22;104;53.590;10.004;2022-08-07T08:28:50;21.50;55.10
240;DHT22;104;53.590;10.004;2022-08-07T08:31:23;21.70;54.80
240;DHT22;104;53.590;10.004;2022-08-07T08:33:52;21.70;54.40
240;DHT22;104;53.590;10.004;2022-08-07T08:36:36;21.80;54.00
240;DHT22;104;53.590;10.004;2022-08-07T08:39:26;21.80;53.20
240;DHT22;104;53.590;10.004;2022-08-07T08:41:58;21.80;53.90
240;DHT22;104;53.590;10.004;2022-08-07T08:44:38;21.90;53.30
240;DHT22;104;53.590;10.004;2022-08-07T08:47:08;22.00;52.40
240;DHT22;104;53.590;10.004;2022-08-07T08:49:48;21.90;53.30
240;DHT22;104;53.590;10.004;2022-08-07T08:52:24;22.00;53.50
240;DHT22;104;53.590;10.004;2022-08-07T08:54:56;22.00;53.80
240;DHT22;104;53.590;10.004;2022-08-07T08:57:30;22.00;52.70
240;DHT22;104;53.590;10.004;2022-08-07T09:00:06;22.10;53.60
240;DHT22;104;53.590;10.004;2022-08-07T09:02:43;22.10;53.50
240;DHT22;104;53.590;10.004;2022-08-07T09:05:23;22.20;52.80
240;DHT22;104;53.590;10.004;2022-08-07T09:07:59;22.40;52.10
240;DHT22;104;53.590;10.004;2022-08-07T09:10:34;22.50;51.60
240;DHT22;104;53.590;10.004;2022-08-07T09:13:12;22.40;52.80
240;DHT22;104;53.590;10.004;2022-08-07T09:15:53;22.50;51.60
240;DHT22;104;53.590;10.004;2022-08-07T09:18:41;22.60;53.50
240;DHT22;104;53.590;10.004;2022-08-07T09:21:23;22.70;52.90
240;DHT22;104;53.590;10.004;2022-08-07T09:24:03;22.90;50.00
240;DHT22;104;53.590;10.004;2022-08-07T09:26:39;23.00;49.70
240;DHT22;104;53.590;10.004;2022-08-07T09:29:20;23.00;50.00
240;DHT22;104;53.590;10.004;2022-08-07T09:31:58;23.00;48.70
240;DHT22;104;53.590;10.004;2022-08-07T09:34:35;22.90;49.00
240;DHT22;104;53.590;10.004;2022-08-07T09:37:13;22.90;51.60
240;DHT22;104;53.590;10.004;2022-08-07T09:39:54;23.10;51.50
240;DHT22;104;53.590;10.004;2022-08-07T09:42:49;23.30;48.70
240;DHT22;104;53.590;10.004;2022-08-07T09:45:36;23.40;48.70
240;DHT22;104;53.590;10.004;2022-08-07T10:19:42;24.20;45.10
240;DHT22;104;53.590;10.004;2022-08-07T10:22:40;24.10;44.80
240;DHT22;104;53.590;10.004;2022-08-07T10:25:23;24.20;44.80
240;DHT22;104;53.590;10.004;2022-08-07T10:30:58;24.30;44.60
240;DHT22;104;53.590;10.004;2022-08-07T10:33:42;24.40;45.20
240;DHT22;104;53.590;10.004;2022-08-07T10:36:27;24.60;44.20
240;DHT22;104;53.590;10.004;2022-08-07T10:39:02;24.60;44.80
240;DHT22;104;53.590;10.004;2022-08-07T10:41:32;24.60;43.40
240;DHT22;104;53.590;10.004;2022-08-07T10:44:06;24.70;44.40
240;DHT22;104;53.590;10.004;2022-08-07T10:46:40;24.90;43.70
240;DHT22;104;53.590;10.004;2022-08-07T10:49:13;25.00;43.00
240;DHT22;104;53.590;10.004;2022-08-07T10:51:52;25.10;42.60
240;DHT22;104;53.590;10.004;2022-08-07T10:54:28;25.00;43.00
240;DHT22;104;53.590;10.004;2022-08-07T10:57:07;25.20;42.30
240;DHT22;104;53.590;10.004;2022-08-07T10:59:46;25.30;41.90
240;DHT22;104;53.590;10.004;2022-08-07T11:02:22;25.40;41.50
240;DHT22;104;53.590;10.004;2022-08-07T11:05:01;25.40;40.90
240;DHT22;104;53.590;10.004;2022-08-07T11:07:37;25.40;41.10
240;DHT22;104;53.590;10.004;2022-08-07T11:10:13;25.60;41.00
240;DHT22;104;53.590;10.004;2022-08-07T11:12:49;25.80;40.60
240;DHT22;104;53.590;10.004;2022-08-07T11:15:21;26.10;40.40
240;DHT22;104;53.590;10.004;2022-08-07T11:17:53;26.20;40.00
240;DHT22;104;53.590;10.004;2022-08-07T11:20:34;26.40;39.80
240;DHT22;104;53.590;10.004;2022-08-07T11:23:13;26.40;40.00
240;DHT22;104;53.590;10.004;2022-08-07T11:25:49;26.60;40.10
240;DHT22;104;53.590;10.004;2022-08-07T11:28:21;26.60;39.80
240;DHT22;104;53.590;10.004;2022-08-07T11:30:53;26.60;40.90
240;DHT22;104;53.590;10.004;2022-08-07T11:33:27;26.40;42.00
240;DHT22;104;53.590;10.004;2022-08-07T11:36:07;26.20;41.80
240;DHT22;104;53.590;10.004;2022-08-07T11:38:45;26.30;42.00
240;DHT22;104;53.590;10.004;2022-08-07T11:41:21;26.50;41.80
240;DHT22;104;53.590;10.004;2022-08-07T11:43:56;26.50;41.10
240;DHT22;104;53.590;10.004;2022-08-07T11:46:37;26.30;41.90
240;DHT22;104;53.590;10.004;2022-08-07T11:49:16;26.40;41.50
240;DHT22;104;53.590;10.004;2022-08-07T11:51:56;26.60;40.60
240;DHT22;104;53.590;10.004;2022-08-07T11:54:44;26.70;40.40
240;DHT22;104;53.590;10.004;2022-08-07T11:57:21;26.80;40.40
240;DHT22;104;53.590;10.004;2022-08-07T12:00:04;27.00;39.90
240;DHT22;104;53.590;10.004;2022-08-07T12:05:52;26.80;40.20
240;DHT22;104;53.590;10.004;2022-08-07T12:08:25;26.70;40.40
240;DHT22;104;53.590;10.004;2022-08-07T12:10:59;26.50;40.90
240;DHT22;104;53.590;10.004;2022-08-07T12:13:33;26.60;40.40
240;DHT22;104;53.590;10.004;2022-08-07T12:16:06;26.50;40.90
240;DHT22;104;53.590;10.004;2022-08-07T12:18:40;27.00;40.70
240;DHT22;104;53.590;10.004;2022-08-07T12:21:23;27.30;39.30
240;DHT22;104;53.590;10.004;2022-08-07T12:23:58;27.70;39.00
240;DHT22;104;53.590;10.004;2022-08-07T12:26:33;28.10;38.90
240;DHT22;104;53.590;10.004;2022-08-07T12:29:06;28.40;37.60
240;DHT22;104;53.590;10.004;2022-08-07T12:31:40;28.70;37.00
240;DHT22;104;53.590;10.004;2022-08-07T12:34:10;28.90;37.30
240;DHT22;104;53.590;10.004;2022-08-07T12:36:39;28.90;36.70
240;DHT22;104;53.590;10.004;2022-08-07T12:39:07;28.60;37.20
240;DHT22;104;53.590;10.004;2022-08-07T12:41:36;28.60;37.10
240;DHT22;104;53.590;10.004;2022-08-07T12:44:05;28.70;37.10
240;DHT22;104;53.590;10.004;2022-08-07T12:46:45;28.50;37.60
240;DHT22;104;53.590;10.004;2022-08-07T12:49:23;28.50;37.30
240;DHT22;104;53.590;10.004;2022-08-07T12:52:01;28.40;37.30
240;DHT22;104;53.590;10.004;2022-08-07T12:54:34;28.20;38.00
240;DHT22;104;53.590;10.004;2022-08-07T12:57:11;28.00;38.10
240;DHT22;104;53.590;10.004;2022-08-07T12:59:43;28.00;37.90
240;DHT22;104;53.590;10.004;2022-08-07T13:02:26;27.90;37.90
240;DHT22;104;53.590;10.004;2022-08-07T13:05:07;27.70;38.30
240;DHT22;104;53.590;10.004;2022-08-07T13:08:16;27.70;38.40
240;DHT22;104;53.590;10.004;2022-08-07T13:11:02;27.40;38.60
240;DHT22;104;53.590;10.004;2022-08-07T13:13:54;26.50;40.20
240;DHT22;104;53.590;10.004;2022-08-07T13:16:34;26.70;41.40
240;DHT22;104;53.590;10.004;2022-08-07T13:19:17;27.00;40.50
240;DHT22;104;53.590;10.004;2022-08-07T13:21:53;27.40;39.60
240;DHT22;104;53.590;10.004;2022-08-07T13:24:25;27.40;39.20
240;DHT22;104;53.590;10.004;2022-08-07T13:27:09;27.50;39.30
240;DHT22;104;53.590;10.004;2022-08-07T13:29:47;27.60;38.90
240;DHT22;104;53.590;10.004;2022-08-07T13:32:17;27.70;39.50
240;DHT22;104;53.590;10.004;2022-08-07T13:34:53;27.80;38.80
240;DHT22;104;53.590;10.004;2022-08-07T13:37:27;28.00;38.70
240;DHT22;104;53.590;10.004;2022-08-07T13:40:04;28.20;38.70
240;DHT22;104;53.590;10.004;2022-08-07T13:42:32;28.30;37.60
240;DHT22;104;53.590;10.004;2022-08-07T13:45:04;28.30;37.20
240;DHT22;104;53.590;10.004;2022-08-07T13:47:34;28.20;37.30
240;DHT22;104;53.590;10.004;2022-08-07T13:50:03;28.10;37.00
240;DHT22;104;53.590;10.004;2022-08-07T13:52:32;27.90;37.00
240;DHT22;104;53.590;10.004;2022-08-07T13:55:07;27.70;37.40
240;DHT22;104;53.590;10.004;2022-08-07T13:57:37;27.50;37.80
240;DHT22;104;53.590;10.004;2022-08-07T14:00:08;27.30;37.70
240;DHT22;104;53.590;10.004;2022-08-07T14:02:36;27.30;37.90
240;DHT22;104;53.590;10.004;2022-08-07T14:05:08;27.40;38.20
240;DHT22;104;53.590;10.004;2022-08-07T14:07:39;27.60;37.70
240;DHT22;104;53.590;10.004;2022-08-07T14:10:08;27.60;37.30
240;DHT22;104;53.590;10.004;2022-08-07T14:12:40;27.60;37.30
240;DHT22;104;53.590;10.004;2022-08-07T14:15:22;27.60;37.30
240;DHT22;104;53.590;10.004;2022-08-07T14:17:53;27.70;37.00
240;DHT22;104;53.590;10.004;2022-08-07T14:20:23;27.50;38.10
240;DHT22;104;53.590;10.004;2022-08-07T14:22:59;27.50;37.60
240;DHT22;104;53.590;10.004;2022-08-07T14:25:30;27.60;37.20
240;DHT22;104;53.590;10.004;2022-08-07T14:28:03;27.70;37.40
240;DHT22;104;53.590;10.004;2022-08-07T14:30:33;27.80;38.30
240;DHT22;104;53.590;10.004;2022-08-07T14:33:03;27.80;37.80
240;DHT22;104;53.590;10.004;2022-08-07T14:35:32;27.90;37.90
240;DHT22;104;53.590;10.004;2022-08-07T14:38:00;27.90;37.40
240;DHT22;104;53.590;10.004;2022-08-07T14:40:28;27.90;37.30
240;DHT22;104;53.590;10.004;2022-08-07T14:42:59;27.90;37.30
240;DHT22;104;53.590;10.004;2022-08-07T14:45:29;27.90;37.10
240;DHT22;104;53.590;10.004;2022-08-07T14:48:00;27.80;37.30
240;DHT22;104;53.590;10.004;2022-08-07T14:50:30;27.70;37.80
240;DHT22;104;53.590;10.004;2022-08-07T14:52:59;27.60;37.30
240;DHT22;104;53.590;10.004;2022-08-07T15:11:39;27.50;37.60
240;DHT22;104;53.590;10.004;2022-08-07T15:14:31;27.50;37.70
240;DHT22;104;53.590;10.004;2022-08-07T15:17:14;27.30;38.20
240;DHT22;104;53.590;10.004;2022-08-07T15:19:59;27.40;39.40
240;DHT22;104;53.590;10.004;2022-08-07T15:22:30;27.40;37.90
240;DHT22;104;53.590;10.004;2022-08-07T15:25:13;27.30;38.40
240;DHT22;104;53.590;10.004;2022-08-07T15:27:44;27.20;38.30
240;DHT22;104;53.590;10.004;2022-08-07T15:30:14;27.20;38.30
240;DHT22;104;53.590;10.004;2022-08-07T15:32:43;27.30;38.30
240;DHT22;104;53.590;10.004;2022-08-07T15:35:14;27.20;38.00
240;DHT22;104;53.590;10.004;2022-08-07T15:37:47;27.30;38.20
240;DHT22;104;53.590;10.004;2022-08-07T15:40:21;27.30;37.90
240;DHT22;104;53.590;10.004;2022-08-07T15:42:52;27.20;38.10
240;DHT22;104;53.590;10.004;2022-08-07T15:45:31;27.30;38.60
240;DHT22;104;53.590;10.004;2022-08-07T15:48:07;27.20;38.30
240;DHT22;104;53.590;10.004;2022-08-07T15:50:54;27.10;39.20
240;DHT22;104;53.590;10.004;2022-08-07T15:53:25;27.00;38.80
240;DHT22;104;53.590;10.004;2022-08-07T15:56:00;27.00;38.90
240;DHT22;104;53.590;10.004;2022-08-07T16:15:24;26.80;40.30
240;DHT22;104;53.590;10.004;2022-08-07T16:18:04;26.90;40.10
240;DHT22;104;53.590;10.004;2022-08-07T16:28:53;26.70;40.20
240;DHT22;104;53.590;10.004;2022-08-07T16:31:32;26.60;40.90
240;DHT22;104;53.590;10.004;2022-08-07T16:34:06;26.60;40.70
240;DHT22;104;53.590;10.004;2022-08-07T16:36:44;26.60;40.90
240;DHT22;104;53.590;10.004;2022-08-07T16:39:27;26.50;40.60
240;DHT22;104;53.590;10.004;2022-08-07T16:42:14;26.40;41.30
240;DHT22;104;53.590;10.004;2022-08-07T16:48:15;26.10;41.80
240;DHT22;104;53.590;10.004;2022-08-07T16:50:57;26.20;41.70
240;DHT22;104;53.590;10.004;2022-08-07T16:53:50;26.00;41.40
240;DHT22;104;53.590;10.004;2022-08-07T16:56:24;25.90;42.40
240;DHT22;104;53.590;10.004;2022-08-07T16:59:00;25.90;42.00
240;DHT22;104;53.590;10.004;2022-08-07T17:01:34;25.70;42.20
240;DHT22;104;53.590;10.004;2022-08-07T17:04:10;25.70;43.00
240;DHT22;104;53.590;10.004;2022-08-07T17:06:53;25.70;42.90
240;DHT22;104;53.590;10.004;2022-08-07T17:09:29;25.70;42.80
240;DHT22;104;53.590;10.004;2022-08-07T17:12:08;25.70;43.30
240;DHT22;104;53.590;10.004;2022-08-07T17:14:45;25.60;43.20
240;DHT22;104;53.590;10.004;2022-08-07T17:17:37;25.60;43.40
240;DHT22;104;53.590;10.004;2022-08-07T17:20:15;25.60;43.10
240;DHT22;104;53.590;10.004;2022-08-07T17:22:56;25.50;43.60
240;DHT22;104;53.590;10.004;2022-08-07T17:25:29;25.50;43.70
240;DHT22;104;53.590;10.004;2022-08-07T17:28:04;25.40;43.90
240;DHT22;104;53.590;10.004;2022-08-07T17:30:40;25.30;44.30
240;DHT22;104;53.590;10.004;2022-08-07T17:33:15;25.40;44.00
240;DHT22;104;53.590;10.004;2022-08-07T17:35:56;25.30;44.20
240;DHT22;104;53.590;10.004;2022-08-07T17:38:29;25.30;44.20
240;DHT22;104;53.590;10.004;2022-08-07T17:41:01;25.20;44.30
240;DHT22;104;53.590;10.004;2022-08-07T17:43:32;25.10;44.30
240;DHT22;104;53.590;10.004;2022-08-07T17:46:10;24.90;45.60
240;DHT22;104;53.590;10.004;2022-08-07T17:48:44;24.90;45.80
240;DHT22;104;53.590;10.004;2022-08-07T17:51:19;24.80;45.30
240;DHT22;104;53.590;10.004;2022-08-07T17:53:57;24.80;45.50
240;DHT22;104;53.590;10.004;2022-08-07T17:56:30;24.80;45.60
240;DHT22;104;53.590;10.004;2022-08-07T17:59:02;24.70;45.70
240;DHT22;104;53.590;10.004;2022-08-07T18:01:36;24.70;45.80
240;DHT22;104;53.590;10.004;2022-08-07T18:04:16;24.60;45.80
240;DHT22;104;53.590;10.004;2022-08-07T18:06:57;24.50;46.00
240;DHT22;104;53.590;10.004;2022-08-07T18:09:27;24.40;46.80
240;DHT22;104;53.590;10.004;2022-08-07T18:12:03;24.40;46.70
240;DHT22;104;53.590;10.004;2022-08-07T18:14:36;24.30;46.90
240;DHT22;104;53.590;10.004;2022-08-07T18:17:21;24.30;46.80
240;DHT22;104;53.590;10.004;2022-08-07T18:19:54;24.20;47.10